sensor_id;sensor_type;location;lat;lon;timestamp;P1;durP1;ratioP1;P2;durP2;ratioP2
11614;SDS011;5863;52.832;4.758;2023-05-10T00:00:43;13.00;;;6.82;;
11614;SDS011;5863;52.832;4.758;2023-05-10T00:03:10;10.90;;;6.78;;
11614;SDS011;5863;52.832;4.758;2023-05-10T00:05:36;11.85;;;6.35;;
11614;SDS011;5863;52.832;4.758;2023-05-10T00:08:03;11.77;;;6.50;;
11614;SDS011;5863;52.832;4.758;2023-05-10T00:10:30;12.40;;;6.90;;
11614;SDS011;5863;52.832;4.758;2023-05-10T00:12:57;13.98;;;7.47;;
11614;SDS011;5863;52.832;4.758;2023-05-10T00:15:23;13.38;;;6.45;;
11614;SDS011;5863;52.832;4.758;2023-05-10T00:17:51;11.55;;;6.20;;
11614;SDS011;5863;52.832;4.758;2023-05-10T00:20:18;11.38;;;5.82;;
11614;SDS011;5863;52.832;4.758;2023-05-10T00:22:45;10.02;;;5.53;;
11614;SDS011;5863;52.832;4.758;2023-05-10T00:25:12;10.07;;;5.70;;
11614;SDS011;5863;52.832;4.758;2023-05-10T00:27:38;11.82;;;5.53;;
11614;SDS011;5863;52.832;4.758;2023-05-10T00:30:05;8.43;;;5.32;;
11614;SDS011;5863;52.832;4.758;2023-05-10T00:32:33;13.57;;;5.85;;
11614;SDS011;5863;52.832;4.758;2023-05-10T00:35:02;8.45;;;5.22;;
11614;SDS011;5863;52.832;4.758;2023-05-10T00:37:29;13.27;;;5.75;;
11614;SDS011;5863;52.832;4.758;2023-05-10T00:39:55;10.80;;;6.25;;
11614;SDS011;5863;52.832;4.758;2023-05-10T00:42:22;11.23;;;6.53;;
11614;SDS011;5863;52.832;4.758;2023-05-10T00:44:49;12.20;;;6.47;;
11614;SDS011;5863;52.832;4.758;2023-05-10T00:47:16;8.35;;;5.82;;
11614;SDS011;5863;52.832;4.758;2023-05-10T00:49:43;9.60;;;6.22;;
11614;SDS011;5863;52.832;4.758;2023-05-10T00:52:13;8.60;;;5.82;;
11614;SDS011;5863;52.832;4.758;2023-05-10T00:54:40;8.43;;;6.28;;
11614;SDS011;5863;52.832;4.758;2023-05-10T00:57:07;9.50;;;6.38;;
11614;SDS011;5863;52.832;4.758;2023-05-10T00:59:34;8.95;;;6.45;;
11614;SDS011;5863;52.832;4.758;2023-05-10T01:02:01;10.63;;;6.95;;
11614;SDS011;5863;52.832;4.758;2023-05-10T01:04:29;11.32;;;6.40;;
11614;SDS011;5863;52.832;4.758;2023-05-10T01:06:56;11.68;;;6.75;;
11614;SDS011;5863;52.832;4.758;2023-05-10T01:09:24;11.95;;;7.47;;
11614;SDS011;5863;52.832;4.758;2023-05-10T01:11:52;10.57;;;6.85;;
11614;SDS011;5863;52.832;4.758;2023-05-10T01:14:20;12.20;;;7.10;;
11614;SDS011;5863;52.832;4.758;2023-05-10T01:16:47;11.35;;;6.55;;
11614;SDS011;5863;52.832;4.758;2023-05-10T01:19:17;12.98;;;7.07;;
11614;SDS011;5863;52.832;4.758;2023-05-10T01:21:49;11.40;;;7.25;;
11614;SDS011;5863;52.832;4.758;2023-05-10T01:24:37;14.18;;;7.05;;
11614;SDS011;5863;52.832;4.758;2023-05-10T01:30:42;14.15;;;7.22;;
11614;SDS011;5863;52.832;4.758;2023-05-10T01:33:35;10.85;;;6.00;;
11614;SDS011;5863;52.832;4.758;2023-05-10T01:36:07;9.68;;;5.72;;
11614;SDS011;5863;52.832;4.758;2023-05-10T01:38:41;9.30;;;5.32;;
11614;SDS011;5863;52.832;4.758;2023-05-10T01:41:13;9.30;;;4.75;;
11614;SDS011;5863;52.832;4.758;2023-05-10T01:43:45;7.38;;;4.13;;
11614;SDS011;5863;52.832;4.758;2023-05-10T01:46:20;8.80;;;4.72;;
11614;SDS011;5863;52.832;4.758;2023-05-10T01:48:55;8.68;;;4.32;;
11614;SDS011;5863;52.832;4.758;2023-05-10T01:51:25;6.88;;;3.90;;
11614;SDS011;5863;52.832;4.758;2023-05-10T01:53:58;6.95;;;3.35;;
11614;SDS011;5863;52.832;4.758;2023-05-10T01:56:28;6.35;;;3.85;;
11614;SDS011;5863;52.832;4.758;2023-05-10T01:58:58;6.35;;;4.10;;
11614;SDS011;5863;52.832;4.758;2023-05-10T02:01:25;5.00;;;3.40;;
11614;SDS011;5863;52.832;4.758;2023-05-10T02:03:54;5.50;;;3.40;;
11614;SDS011;5863;52.832;4.758;2023-05-10T02:06:23;5.20;;;3.50;;
11614;SDS011;5863;52.832;4.758;2023-05-10T02:08:51;4.93;;;3.30;;
11614;SDS011;5863;52.832;4.758;2023-05-10T02:11:19;4.50;;;3.15;;
11614;SDS011;5863;52.832;4.758;2023-05-10T02:13:48;5.05;;;3.08;;
11614;SDS011;5863;52.832;4.758;2023-05-10T02:16:16;9.55;;;2.83;;
11614;SDS011;5863;52.832;4.758;2023-05-10T02:18:44;4.93;;;3.50;;
11614;SDS011;5863;52.832;4.758;2023-05-10T02:21:14;4.45;;;3.60;;
11614;SDS011;5863;52.832;4.758;2023-05-10T02:23:42;6.45;;;3.55;;
11614;SDS011;5863;52.832;4.758;2023-05-10T02:26:10;5.45;;;3.40;;
11614;SDS011;5863;52.832;4.758;2023-05-10T02:28:44;5.03;;;3.00;;
11614;SDS011;5863;52.832;4.758;2023-05-10T02:31:11;6.30;;;3.55;;
11614;SDS011;5863;52.832;4.758;2023-05-10T02:33:39;7.10;;;3.38;;
11614;SDS011;5863;52.832;4.758;2023-05-10T02:36:06;4.43;;;2.88;;
11614;SDS011;5863;52.832;4.758;2023-05-10T02:38:37;3.00;;;2.70;;
11614;SDS011;5863;52.832;4.758;2023-05-10T02:41:04;3.20;;;2.80;;
11614;SDS011;5863;52.832;4.758;2023-05-10T02:43:33;3.30;;;2.70;;
11614;SDS011;5863;52.832;4.758;2023-05-10T02:46:01;3.80;;;2.70;;
11614;SDS011;5863;52.832;4.758;2023-05-10T02:48:28;3.42;;;2.63;;
11614;SDS011;5863;52.832;4.758;2023-05-10T02:50:56;2.53;;;2.28;;
11614;SDS011;5863;52.832;4.758;2023-05-10T02:53:31;2.42;;;2.22;;
11614;SDS011;5863;52.832;4.758;2023-05-10T02:56:01;2.92;;;2.60;;
11614;SDS011;5863;52.832;4.758;2023-05-10T02:58:32;2.95;;;2.35;;
11614;SDS011;5863;52.832;4.758;2023-05-10T03:00:59;3.35;;;2.35;;
11614;SDS011;5863;52.832;4.758;2023-05-10T03:03:30;4.18;;;2.70;;
11614;SDS011;5863;52.832;4.758;2023-05-10T03:05:57;4.65;;;3.10;;
11614;SDS011;5863;52.832;4.758;2023-05-10T03:08:23;5.43;;;3.10;;
11614;SDS011;5863;52.832;4.758;2023-05-10T03:10:54;4.07;;;2.67;;
11614;SDS011;5863;52.832;4.758;2023-05-10T03:13:33;4.70;;;3.05;;
11614;SDS011;5863;52.832;4.758;2023-05-10T03:16:06;4.72;;;2.70;;
11614;SDS011;5863;52.832;4.758;2023-05-10T03:18:37;4.40;;;2.85;;
11614;SDS011;5863;52.832;4.758;2023-05-10T03:21:10;5.80;;;2.92;;
11614;SDS011;5863;52.832;4.758;2023-05-10T03:23:41;6.20;;;3.08;;
11614;SDS011;5863;52.832;4.758;2023-05-10T03:26:11;4.57;;;2.90;;
11614;SDS011;5863;52.832;4.758;2023-05-10T03:28:45;7.93;;;3.28;;
11614;SDS011;5863;52.832;4.758;2023-05-10T03:31:13;6.40;;;3.28;;
11614;SDS011;5863;52.832;4.758;2023-05-10T03:33:45;6.35;;;3.70;;
11614;SDS011;5863;52.832;4.758;2023-05-10T03:36:13;7.85;;;4.22;;
11614;SDS011;5863;52.832;4.758;2023-05-10T03:38:39;9.45;;;4.78;;
11614;SDS011;5863;52.832;4.758;2023-05-10T03:41:06;10.30;;;5.07;;
11614;SDS011;5863;52.832;4.758;2023-05-10T03:43:33;10.15;;;4.68;;
11614;SDS011;5863;52.832;4.758;2023-05-10T03:46:02;9.77;;;4.97;;
11614;SDS011;5863;52.832;4.758;2023-05-10T03:48:29;10.32;;;5.25;;
11614;SDS011;5863;52.832;4.758;2023-05-10T03:50:56;10.75;;;5.30;;
11614;SDS011;5863;52.832;4.758;2023-05-10T03:53:22;11.35;;;5.07;;
11614;SDS011;5863;52.832;4.758;2023-05-10T03:55:49;10.43;;;5.50;;
11614;SDS011;5863;52.832;4.758;2023-05-10T03:58:16;14.60;;;6.38;;
11614;SDS011;5863;52.832;4.758;2023-05-10T04:00:43;11.52;;;5.88;;
11614;SDS011;5863;52.832;4.758;2023-05-10T04:03:11;9.85;;;6.25;;
11614;SDS011;5863;52.832;4.758;2023-05-10T04:05:38;8.65;;;5.55;;
11614;SDS011;5863;52.832;4.758;2023-05-10T04:08:05;10.18;;;6.57;;
11614;SDS011;5863;52.832;4.758;2023-05-10T04:10:32;9.27;;;6.30;;
11614;SDS011;5863;52.832;4.758;2023-05-10T04:12:59;11.23;;;6.57;;
11614;SDS011;5863;52.832;4.758;2023-05-10T04:15:25;10.38;;;6.75;;
11614;SDS011;5863;52.832;4.758;2023-05-10T04:17:52;10.88;;;7.82;;
11614;SDS011;5863;52.832;4.758;2023-05-10T04:20:23;6.75;;;6.00;;
11614;SDS011;5863;52.832;4.758;2023-05-10T04:22:50;8.50;;;6.55;;
11614;SDS011;5863;52.832;4.758;2023-05-10T04:25:17;6.47;;;5.55;;
11614;SDS011;5863;52.832;4.758;2023-05-10T04:27:44;6.68;;;6.00;;
11614;SDS011;5863;52.832;4.758;2023-05-10T04:30:10;10.63;;;6.35;;
11614;SDS011;5863;52.832;4.758;2023-05-10T04:32:37;6.68;;;5.65;;
11614;SDS011;5863;52.832;4.758;2023-05-10T04:35:04;5.97;;;5.47;;
11614;SDS011;5863;52.832;4.758;2023-05-10T04:37:35;5.90;;;5.28;;
11614;SDS011;5863;52.832;4.758;2023-05-10T04:40:02;6.07;;;5.25;;
11614;SDS011;5863;52.832;4.758;2023-05-10T04:42:30;6.43;;;4.97;;
11614;SDS011;5863;52.832;4.758;2023-05-10T04:44:57;5.45;;;4.95;;
11614;SDS011;5863;52.832;4.758;2023-05-10T04:47:24;6.68;;;5.30;;
11614;SDS011;5863;52.832;4.758;2023-05-10T04:49:50;7.32;;;5.63;;
11614;SDS011;5863;52.832;4.758;2023-05-10T04:52:17;6.00;;;5.28;;
11614;SDS011;5863;52.832;4.758;2023-05-10T04:54:45;6.18;;;5.63;;
11614;SDS011;5863;52.832;4.758;2023-05-10T04:57:13;7.22;;;6.40;;
11614;SDS011;5863;52.832;4.758;2023-05-10T04:59:39;6.60;;;6.00;;
11614;SDS011;5863;52.832;4.758;2023-05-10T05:02:06;8.48;;;6.80;;
11614;SDS011;5863;52.832;4.758;2023-05-10T05:04:33;7.63;;;6.93;;
11614;SDS011;5863;52.832;4.758;2023-05-10T05:06:59;7.53;;;6.82;;
11614;SDS011;5863;52.832;4.758;2023-05-10T05:09:26;9.30;;;6.53;;
11614;SDS011;5863;52.832;4.758;2023-05-10T05:11:54;7.25;;;6.38;;
11614;SDS011;5863;52.832;4.758;2023-05-10T05:14:21;7.32;;;6.03;;
11614;SDS011;5863;52.832;4.758;2023-05-10T05:16:47;6.65;;;5.70;;
11614;SDS011;5863;52.832;4.758;2023-05-10T05:19:14;7.55;;;5.63;;
11614;SDS011;5863;52.832;4.758;2023-05-10T05:21:41;7.38;;;6.68;;
11614;SDS011;5863;52.832;4.758;2023-05-10T05:24:08;8.88;;;6.68;;
11614;SDS011;5863;52.832;4.758;2023-05-10T05:26:36;7.95;;;7.13;;
11614;SDS011;5863;52.832;4.758;2023-05-10T05:29:04;9.02;;;7.70;;
11614;SDS011;5863;52.832;4.758;2023-05-10T05:31:30;8.00;;;6.97;;
11614;SDS011;5863;52.832;4.758;2023-05-10T05:33:58;8.30;;;7.07;;
11614;SDS011;5863;52.832;4.758;2023-05-10T05:36:25;10.15;;;8.00;;
11614;SDS011;5863;52.832;4.758;2023-05-10T05:38:53;8.90;;;6.97;;
11614;SDS011;5863;52.832;4.758;2023-05-10T05:41:20;10.48;;;7.28;;
11614;SDS011;5863;52.832;4.758;2023-05-10T05:43:54;10.50;;;7.45;;
11614;SDS011;5863;52.832;4.758;2023-05-10T05:46:22;9.98;;;6.95;;
11614;SDS011;5863;52.832;4.758;2023-05-10T05:48:49;9.15;;;7.57;;
11614;SDS011;5863;52.832;4.758;2023-05-10T05:51:16;13.63;;;8.07;;
11614;SDS011;5863;52.832;4.758;2023-05-10T05:53:48;10.77;;;8.18;;
11614;SDS011;5863;52.832;4.758;2023-05-10T05:56:15;9.13;;;7.57;;
11614;SDS011;5863;52.832;4.758;2023-05-10T05:58:43;10.80;;;8.00;;
11614;SDS011;5863;52.832;4.758;2023-05-10T06:01:10;10.90;;;7.82;;
11614;SDS011;5863;52.832;4.758;2023-05-10T06:03:38;10.95;;;8.48;;
11614;SDS011;5863;52.832;4.758;2023-05-10T06:08:44;10.55;;;7.95;;
11614;SDS011;5863;52.832;4.758;2023-05-10T06:11:10;9.25;;;7.80;;
11614;SDS011;5863;52.832;4.758;2023-05-10T06:13:37;8.63;;;7.38;;
11614;SDS011;5863;52.832;4.758;2023-05-10T06:16:04;10.48;;;7.57;;
11614;SDS011;5863;52.832;4.758;2023-05-10T06:18:31;7.85;;;6.97;;
11614;SDS011;5863;52.832;4.758;2023-05-10T06:20:59;8.50;;;7.60;;
11614;SDS011;5863;52.832;4.758;2023-05-10T06:23:26;9.25;;;8.18;;
11614;SDS011;5863;52.832;4.758;2023-05-10T06:25:53;9.30;;;7.90;;
11614;SDS011;5863;52.832;4.758;2023-05-10T06:28:20;8.60;;;7.28;;
11614;SDS011;5863;52.832;4.758;2023-05-10T06:30:47;8.77;;;7.32;;
11614;SDS011;5863;52.832;4.758;2023-05-10T06:33:13;8.45;;;7.15;;
11614;SDS011;5863;52.832;4.758;2023-05-10T06:35:41;9.07;;;7.38;;
11614;SDS011;5863;52.832;4.758;2023-05-10T06:38:09;7.63;;;6.82;;
11614;SDS011;5863;52.832;4.758;2023-05-10T06:40:35;8.40;;;6.80;;
11614;SDS011;5863;52.832;4.758;2023-05-10T06:43:10;7.90;;;6.80;;
11614;SDS011;5863;52.832;4.758;2023-05-10T06:45:36;9.35;;;6.60;;
11614;SDS011;5863;52.832;4.758;2023-05-10T06:48:03;7.75;;;6.70;;
11614;SDS011;5863;52.832;4.758;2023-05-10T06:50:30;9.23;;;6.18;;
11614;SDS011;5863;52.832;4.758;2023-05-10T06:53:01;7.72;;;6.68;;
11614;SDS011;5863;52.832;4.758;2023-05-10T06:55:30;7.38;;;6.63;;
11614;SDS011;5863;52.832;4.758;2023-05-10T06:57:56;8.80;;;7.18;;
11614;SDS011;5863;52.832;4.758;2023-05-10T07:00:23;8.55;;;6.95;;
11614;SDS011;5863;52.832;4.758;2023-05-10T07:02:50;9.07;;;7.32;;
11614;SDS011;5863;52.832;4.758;2023-05-10T07:05:17;9.48;;;7.65;;
11614;SDS011;5863;52.832;4.758;2023-05-10T07:07:44;8.75;;;7.43;;
11614;SDS011;5863;52.832;4.758;2023-05-10T07:10:11;9.70;;;7.63;;
11614;SDS011;5863;52.832;4.758;2023-05-10T07:12:39;9.77;;;8.23;;
11614;SDS011;5863;52.832;4.758;2023-05-10T07:15:07;11.32;;;8.50;;
11614;SDS011;5863;52.832;4.758;2023-05-10T07:17:34;10.88;;;7.80;;
11614;SDS011;5863;52.832;4.758;2023-05-10T07:20:08;11.38;;;7.95;;
11614;SDS011;5863;52.832;4.758;2023-05-10T07:22:35;9.18;;;7.75;;
11614;SDS011;5863;52.832;4.758;2023-05-10T07:25:02;11.18;;;7.85;;
11614;SDS011;5863;52.832;4.758;2023-05-10T07:27:29;8.40;;;7.60;;
11614;SDS011;5863;52.832;4.758;2023-05-10T07:29:57;11.77;;;8.25;;
11614;SDS011;5863;52.832;4.758;2023-05-10T07:32:24;11.15;;;7.90;;
11614;SDS011;5863;52.832;4.758;2023-05-10T07:34:50;13.00;;;7.95;;
11614;SDS011;5863;52.832;4.758;2023-05-10T07:37:17;10.07;;;7.50;;
11614;SDS011;5863;52.832;4.758;2023-05-10T07:39:44;8.88;;;7.25;;
11614;SDS011;5863;52.832;4.758;2023-05-10T07:42:11;10.98;;;7.85;;
11614;SDS011;5863;52.832;4.758;2023-05-10T07:44:38;10.23;;;7.10;;
11614;SDS011;5863;52.832;4.758;2023-05-10T07:47:06;8.55;;;7.47;;
11614;SDS011;5863;52.832;4.758;2023-05-10T07:49:32;9.50;;;7.72;;
11614;SDS011;5863;52.832;4.758;2023-05-10T07:52:00;10.85;;;7.25;;
11614;SDS011;5863;52.832;4.758;2023-05-10T07:54:32;8.55;;;7.47;;
11614;SDS011;5863;52.832;4.758;2023-05-10T07:56:59;9.75;;;7.10;;
11614;SDS011;5863;52.832;4.758;2023-05-10T07:59:26;9.90;;;7.82;;
11614;SDS011;5863;52.832;4.758;2023-05-10T08:01:53;9.88;;;7.75;;
11614;SDS011;5863;52.832;4.758;2023-05-10T08:04:21;8.00;;;7.15;;
11614;SDS011;5863;52.832;4.758;2023-05-10T08:06:49;9.70;;;7.82;;
11614;SDS011;5863;52.832;4.758;2023-05-10T08:09:15;9.77;;;7.47;;
11614;SDS011;5863;52.832;4.758;2023-05-10T08:11:42;8.77;;;7.57;;
11614;SDS011;5863;52.832;4.758;2023-05-10T08:14:09;10.77;;;7.82;;
11614;SDS011;5863;52.832;4.758;2023-05-10T08:16:36;9.52;;;8.07;;
11614;SDS011;5863;52.832;4.758;2023-05-10T08:19:02;10.00;;;7.90;;
11614;SDS011;5863;52.832;4.758;2023-05-10T08:21:30;8.85;;;7.90;;
11614;SDS011;5863;52.832;4.758;2023-05-10T08:23:57;9.77;;;8.23;;
11614;SDS011;5863;52.832;4.758;2023-05-10T08:26:24;9.82;;;7.85;;
11614;SDS011;5863;52.832;4.758;2023-05-10T08:28:50;10.85;;;8.25;;
11614;SDS011;5863;52.832;4.758;2023-05-10T08:31:17;11.68;;;8.55;;
11614;SDS011;5863;52.832;4.758;2023-05-10T08:33:46;10.70;;;8.07;;
11614;SDS011;5863;52.832;4.758;2023-05-10T08:36:13;11.00;;;8.65;;
11614;SDS011;5863;52.832;4.758;2023-05-10T08:38:45;10.65;;;8.88;;
11614;SDS011;5863;52.832;4.758;2023-05-10T08:41:19;14.05;;;9.55;;
11614;SDS011;5863;52.832;4.758;2023-05-10T08:43:46;13.43;;;9.95;;
11614;SDS011;5863;52.832;4.758;2023-05-10T08:48:41;14.98;;;10.07;;
11614;SDS011;5863;52.832;4.758;2023-05-10T08:51:11;13.27;;;11.02;;
11614;SDS011;5863;52.832;4.758;2023-05-10T08:53:41;13.65;;;10.60;;
11614;SDS011;5863;52.832;4.758;2023-05-10T08:56:09;12.88;;;10.43;;
11614;SDS011;5863;52.832;4.758;2023-05-10T08:58:37;15.65;;;11.52;;
11614;SDS011;5863;52.832;4.758;2023-05-10T09:01:04;15.98;;;12.13;;
11614;SDS011;5863;52.832;4.758;2023-05-10T09:03:31;14.68;;;11.55;;
11614;SDS011;5863;52.832;4.758;2023-05-10T09:05:58;17.00;;;12.43;;
11614;SDS011;5863;52.832;4.758;2023-05-10T09:08:25;12.13;;;10.48;;
11614;SDS011;5863;52.832;4.758;2023-05-10T09:10:53;15.20;;;10.50;;
11614;SDS011;5863;52.832;4.758;2023-05-10T09:13:22;13.60;;;10.07;;
11614;SDS011;5863;52.832;4.758;2023-05-10T09:15:49;12.60;;;10.35;;
11614;SDS011;5863;52.832;4.758;2023-05-10T09:18:17;13.48;;;9.55;;
11614;SDS011;5863;52.832;4.758;2023-05-10T09:20:44;15.27;;;11.30;;
11614;SDS011;5863;52.832;4.758;2023-05-10T09:23:11;15.00;;;11.32;;
11614;SDS011;5863;52.832;4.758;2023-05-10T09:25:38;15.48;;;12.23;;
11614;SDS011;5863;52.832;4.758;2023-05-10T09:28:07;17.73;;;11.75;;
11614;SDS011;5863;52.832;4.758;2023-05-10T09:30:35;21.88;;;13.05;;
11614;SDS011;5863;52.832;4.758;2023-05-10T09:33:02;21.15;;;13.68;;
11614;SDS011;5863;52.832;4.758;2023-05-10T09:35:29;20.02;;;14.80;;
11614;SDS011;5863;52.832;4.758;2023-05-10T09:37:58;19.73;;;12.60;;
11614;SDS011;5863;52.832;4.758;2023-05-10T09:40:28;18.88;;;12.60;;
11614;SDS011;5863;52.832;4.758;2023-05-10T09:42:57;22.65;;;14.00;;
11614;SDS011;5863;52.832;4.758;2023-05-10T09:45:25;23.08;;;13.98;;
11614;SDS011;5863;52.832;4.758;2023-05-10T09:47:54;20.27;;;12.32;;
11614;SDS011;5863;52.832;4.758;2023-05-10T09:50:22;17.98;;;11.43;;
11614;SDS011;5863;52.832;4.758;2023-05-10T09:52:49;16.15;;;11.52;;
11614;SDS011;5863;52.832;4.758;2023-05-10T09:55:19;14.43;;;10.77;;
11614;SDS011;5863;52.832;4.758;2023-05-10T09:57:47;14.75;;;10.88;;
11614;SDS011;5863;52.832;4.758;2023-05-10T10:00:17;13.05;;;10.82;;
11614;SDS011;5863;52.832;4.758;2023-05-10T10:02:46;15.10;;;10.35;;
11614;SDS011;5863;52.832;4.758;2023-05-10T10:05:15;11.23;;;9.30;;
11614;SDS011;5863;52.832;4.758;2023-05-10T10:07:42;10.32;;;8.88;;
11614;SDS011;5863;52.832;4.758;2023-05-10T10:10:09;10.68;;;8.85;;
11614;SDS011;5863;52.832;4.758;2023-05-10T10:12:37;9.63;;;8.60;;
11614;SDS011;5863;52.832;4.758;2023-05-10T10:15:06;9.20;;;7.90;;
11614;SDS011;5863;52.832;4.758;2023-05-10T10:17:35;10.48;;;8.40;;
11614;SDS011;5863;52.832;4.758;2023-05-10T10:20:03;9.20;;;8.30;;
11614;SDS011;5863;52.832;4.758;2023-05-10T10:22:32;9.27;;;7.88;;
11614;SDS011;5863;52.832;4.758;2023-05-10T10:24:58;8.48;;;7.63;;
11614;SDS011;5863;52.832;4.758;2023-05-10T10:27:28;8.40;;;7.40;;
11614;SDS011;5863;52.832;4.758;2023-05-10T10:30:07;8.52;;;7.60;;
11614;SDS011;5863;52.832;4.758;2023-05-10T10:32:49;7.70;;;7.00;;
11614;SDS011;5863;52.832;4.758;2023-05-10T10:35:28;8.23;;;7.30;;
11614;SDS011;5863;52.832;4.758;2023-05-10T10:37:57;6.90;;;6.15;;
11614;SDS011;5863;52.832;4.758;2023-05-10T10:40:25;7.10;;;6.40;;
11614;SDS011;5863;52.832;4.758;2023-05-10T10:42:53;7.38;;;6.68;;
11614;SDS011;5863;52.832;4.758;2023-05-10T10:45:20;7.88;;;7.13;;
11614;SDS011;5863;52.832;4.758;2023-05-10T10:47:48;9.80;;;7.65;;
11614;SDS011;5863;52.832;4.758;2023-05-10T10:50:16;8.68;;;7.80;;
11614;SDS011;5863;52.832;4.758;2023-05-10T10:52:43;7.70;;;7.00;;
11614;SDS011;5863;52.832;4.758;2023-05-10T10:55:12;6.70;;;6.10;;
11614;SDS011;5863;52.832;4.758;2023-05-10T10:57:44;5.82;;;5.22;;
11614;SDS011;5863;52.832;4.758;2023-05-10T11:00:28;6.13;;;5.32;;
11614;SDS011;5863;52.832;4.758;2023-05-10T11:02:56;6.93;;;5.57;;
11614;SDS011;5863;52.832;4.758;2023-05-10T11:05:35;6.30;;;5.70;;
11614;SDS011;5863;52.832;4.758;2023-05-10T11:08:07;6.85;;;6.18;;
11614;SDS011;5863;52.832;4.758;2023-05-10T11:13:40;6.70;;;6.10;;
11614;SDS011;5863;52.832;4.758;2023-05-10T11:16:17;6.28;;;5.68;;
11614;SDS011;5863;52.832;4.758;2023-05-10T11:18:52;8.85;;;5.57;;
11614;SDS011;5863;52.832;4.758;2023-05-10T11:21:19;14.20;;;6.65;;
11614;SDS011;5863;52.832;4.758;2023-05-10T11:23:50;7.95;;;5.72;;
11614;SDS011;5863;52.832;4.758;2023-05-10T11:26:22;6.38;;;5.78;;
11614;SDS011;5863;52.832;4.758;2023-05-10T11:28:51;5.63;;;5.05;;
11614;SDS011;5863;52.832;4.758;2023-05-10T11:31:20;6.32;;;5.78;;
11614;SDS011;5863;52.832;4.758;2023-05-10T11:33:47;6.18;;;5.47;;
11614;SDS011;5863;52.832;4.758;2023-05-10T11:36:16;5.57;;;5.07;;
11614;SDS011;5863;52.832;4.758;2023-05-10T11:38:44;5.55;;;5.00;;
11614;SDS011;5863;52.832;4.758;2023-05-10T11:41:11;5.20;;;4.70;;
11614;SDS011;5863;52.832;4.758;2023-05-10T11:43:39;4.63;;;4.22;;
11614;SDS011;5863;52.832;4.758;2023-05-10T11:46:07;4.93;;;4.43;;
11614;SDS011;5863;52.832;4.758;2023-05-10T11:48:36;4.57;;;4.18;;
11614;SDS011;5863;52.832;4.758;2023-05-10T11:51:04;5.55;;;4.22;;
11614;SDS011;5863;52.832;4.758;2023-05-10T11:53:32;6.00;;;4.35;;
11614;SDS011;5863;52.832;4.758;2023-05-10T11:56:05;4.35;;;3.92;;
11614;SDS011;5863;52.832;4.758;2023-05-10T11:58:35;4.43;;;4.07;;
11614;SDS011;5863;52.832;4.758;2023-05-10T12:01:05;4.85;;;4.35;;
11614;SDS011;5863;52.832;4.758;2023-05-10T12:03:33;4.68;;;4.28;;
11614;SDS011;5863;52.832;4.758;2023-05-10T12:06:01;4.63;;;4.22;;
11614;SDS011;5863;52.832;4.758;2023-05-10T12:08:29;4.22;;;3.92;;
11614;SDS011;5863;52.832;4.758;2023-05-10T12:11:04;4.10;;;3.80;;
11614;SDS011;5863;52.832;4.758;2023-05-10T12:13:32;5.18;;;4.65;;
11614;SDS011;5863;52.832;4.758;2023-05-10T12:16:13;5.60;;;5.07;;
11614;SDS011;5863;52.832;4.758;2023-05-10T12:18:41;4.93;;;4.53;;
11614;SDS011;5863;52.832;4.758;2023-05-10T12:21:09;5.63;;;5.13;;
11614;SDS011;5863;52.832;4.758;2023-05-10T12:23:37;7.43;;;5.05;;
11614;SDS011;5863;52.832;4.758;2023-05-10T12:26:04;5.28;;;4.78;;
11614;SDS011;5863;52.832;4.758;2023-05-10T12:28:32;5.03;;;4.60;;
11614;SDS011;5863;52.832;4.758;2023-05-10T12:31:00;6.38;;;5.15;;
11614;SDS011;5863;52.832;4.758;2023-05-10T12:33:34;5.10;;;4.70;;
11614;SDS011;5863;52.832;4.758;2023-05-10T12:36:03;4.85;;;4.45;;
11614;SDS011;5863;52.832;4.758;2023-05-10T12:38:31;5.28;;;4.88;;
11614;SDS011;5863;52.832;4.758;2023-05-10T12:41:00;4.95;;;4.55;;
11614;SDS011;5863;52.832;4.758;2023-05-10T12:43:28;5.68;;;4.95;;
11614;SDS011;5863;52.832;4.758;2023-05-10T12:45:55;5.18;;;4.53;;
11614;SDS011;5863;52.832;4.758;2023-05-10T12:48:22;4.32;;;4.03;;
11614;SDS011;5863;52.832;4.758;2023-05-10T12:50:50;4.60;;;4.20;;
11614;SDS011;5863;52.832;4.758;2023-05-10T12:53:17;4.07;;;3.60;;
11614;SDS011;5863;52.832;4.758;2023-05-10T12:55:44;3.80;;;3.50;;
11614;SDS011;5863;52.832;4.758;2023-05-10T12:58:10;5.13;;;4.57;;
11614;SDS011;5863;52.832;4.758;2023-05-10T13:00:37;5.50;;;4.88;;
11614;SDS011;5863;52.832;4.758;2023-05-10T13:03:04;5.60;;;5.10;;
11614;SDS011;5863;52.832;4.758;2023-05-10T13:05:31;5.68;;;5.18;;
11614;SDS011;5863;52.832;4.758;2023-05-10T13:07:59;5.10;;;4.63;;
11614;SDS011;5863;52.832;4.758;2023-05-10T13:10:26;5.63;;;4.68;;
11614;SDS011;5863;52.832;4.758;2023-05-10T13:12:54;5.10;;;4.60;;
11614;SDS011;5863;52.832;4.758;2023-05-10T13:15:22;5.60;;;4.97;;
11614;SDS011;5863;52.832;4.758;2023-05-10T13:17:48;6.80;;;5.55;;
11614;SDS011;5863;52.832;4.758;2023-05-10T13:20:15;5.55;;;5.00;;
11614;SDS011;5863;52.832;4.758;2023-05-10T13:22:42;4.85;;;4.45;;
11614;SDS011;5863;52.832;4.758;2023-05-10T13:25:11;5.07;;;4.57;;
11614;SDS011;5863;52.832;4.758;2023-05-10T13:27:38;6.18;;;5.57;;
11614;SDS011;5863;52.832;4.758;2023-05-10T13:30:06;6.32;;;5.72;;
11614;SDS011;5863;52.832;4.758;2023-05-10T13:32:33;5.93;;;5.43;;
11614;SDS011;5863;52.832;4.758;2023-05-10T13:35:00;5.40;;;4.90;;
11614;SDS011;5863;52.832;4.758;2023-05-10T13:37:28;4.50;;;4.10;;
11614;SDS011;5863;52.832;4.758;2023-05-10T13:39:54;4.82;;;4.40;;
11614;SDS011;5863;52.832;4.758;2023-05-10T13:42:25;5.65;;;5.10;;
11614;SDS011;5863;52.832;4.758;2023-05-10T13:44:52;6.85;;;5.10;;
11614;SDS011;5863;52.832;4.758;2023-05-10T13:47:18;6.30;;;5.43;;
11614;SDS011;5863;52.832;4.758;2023-05-10T13:49:46;5.82;;;5.25;;
11614;SDS011;5863;52.832;4.758;2023-05-10T13:52:13;5.88;;;5.28;;
11614;SDS011;5863;52.832;4.758;2023-05-10T13:54:40;4.57;;;4.15;;
11614;SDS011;5863;52.832;4.758;2023-05-10T13:57:06;4.60;;;4.10;;
11614;SDS011;5863;52.832;4.758;2023-05-10T13:59:35;4.10;;;3.70;;
11614;SDS011;5863;52.832;4.758;2023-05-10T14:02:02;3.88;;;3.53;;
11614;SDS011;5863;52.832;4.758;2023-05-10T14:04:29;3.35;;;3.05;;
11614;SDS011;5863;52.832;4.758;2023-05-10T14:06:56;4.10;;;3.70;;
11614;SDS011;5863;52.832;4.758;2023-05-10T14:09:23;4.72;;;4.20;;
11614;SDS011;5863;52.832;4.758;2023-05-10T14:11:49;5.53;;;4.82;;
11614;SDS011;5863;52.832;4.758;2023-05-10T14:14:16;6.18;;;5.28;;
11614;SDS011;5863;52.832;4.758;2023-05-10T14:16:44;5.60;;;5.10;;
11614;SDS011;5863;52.832;4.758;2023-05-10T14:19:11;5.38;;;4.88;;
11614;SDS011;5863;52.832;4.758;2023-05-10T14:21:38;7.10;;;5.47;;
11614;SDS011;5863;52.832;4.758;2023-05-10T14:24:04;6.82;;;5.80;;
11614;SDS011;5863;52.832;4.758;2023-05-10T14:26:32;6.13;;;5.18;;
11614;SDS011;5863;52.832;4.758;2023-05-10T14:28:59;5.40;;;4.90;;
11614;SDS011;5863;52.832;4.758;2023-05-10T14:31:26;5.20;;;4.72;;
11614;SDS011;5863;52.832;4.758;2023-05-10T14:33:55;5.18;;;4.68;;
11614;SDS011;5863;52.832;4.758;2023-05-10T14:36:21;6.07;;;5.47;;
11614;SDS011;5863;52.832;4.758;2023-05-10T14:38:48;5.90;;;5.40;;
11614;SDS011;5863;52.832;4.758;2023-05-10T14:41:15;5.85;;;5.25;;
11614;SDS011;5863;52.832;4.758;2023-05-10T14:43:42;5.68;;;5.13;;
11614;SDS011;5863;52.832;4.758;2023-05-10T14:46:09;6.65;;;5.85;;
11614;SDS011;5863;52.832;4.758;2023-05-10T14:48:36;7.10;;;6.35;;
11614;SDS011;5863;52.832;4.758;2023-05-10T14:51:04;7.35;;;5.90;;
11614;SDS011;5863;52.832;4.758;2023-05-10T14:53:31;6.03;;;5.40;;
11614;SDS011;5863;52.832;4.758;2023-05-10T14:55:58;4.85;;;4.45;;
11614;SDS011;5863;52.832;4.758;2023-05-10T14:58:26;6.07;;;5.47;;
11614;SDS011;5863;52.832;4.758;2023-05-10T15:00:53;6.25;;;5.65;;
11614;SDS011;5863;52.832;4.758;2023-05-10T15:03:20;7.88;;;6.07;;
11614;SDS011;5863;52.832;4.758;2023-05-10T15:05:47;8.57;;;7.20;;
11614;SDS011;5863;52.832;4.758;2023-05-10T15:08:15;9.90;;;7.53;;
11614;SDS011;5863;52.832;4.758;2023-05-10T15:10:42;8.15;;;7.00;;
11614;SDS011;5863;52.832;4.758;2023-05-10T15:13:08;8.05;;;6.82;;